sensor_id;sensor_type;location;lat;lon;timestamp;P1;durP1;ratioP1;P2;durP2;ratioP2
55053;SDS011;40954;45.668;18.980;2023-04-25T00:00:48;2.22;;;2.08;;
55053;SDS011;40954;45.668;18.980;2023-04-25T00:03:15;3.05;;;2.75;;
55053;SDS011;40954;45.668;18.980;2023-04-25T00:05:43;4.90;;;2.50;;
55053;SDS011;40954;45.668;18.980;2023-04-25T00:08:10;3.10;;;2.30;;
55053;SDS011;40954;45.668;18.980;2023-04-25T00:10:36;2.80;;;2.47;;
55053;SDS011;40954;45.668;18.980;2023-04-25T00:13:02;3.30;;;2.88;;
55053;SDS011;40954;45.668;18.980;2023-04-25T00:15:28;2.33;;;2.22;;
55053;SDS011;40954;45.668;18.980;2023-04-25T00:17:58;5.00;;;2.80;;
55053;SDS011;40954;45.668;18.980;2023-04-25T00:20:24;3.97;;;2.85;;
55053;SDS011;40954;45.668;18.980;2023-04-25T00:22:50;3.17;;;2.65;;
55053;SDS011;40954;45.668;18.980;2023-04-25T00:25:18;4.00;;;2.90;;
55053;SDS011;40954;45.668;18.980;2023-04-25T00:27:44;3.30;;;3.00;;
55053;SDS011;40954;45.668;18.980;2023-04-25T00:30:10;3.03;;;2.83;;
55053;SDS011;40954;45.668;18.980;2023-04-25T00:32:36;3.70;;;3.40;;
55053;SDS011;40954;45.668;18.980;2023-04-25T00:35:03;4.10;;;3.70;;
55053;SDS011;40954;45.668;18.980;2023-04-25T00:37:29;3.08;;;2.88;;
55053;SDS011;40954;45.668;18.980;2023-04-25T00:39:55;3.63;;;3.33;;
55053;SDS011;40954;45.668;18.980;2023-04-25T00:42:22;3.08;;;2.85;;
55053;SDS011;40954;45.668;18.980;2023-04-25T00:44:48;4.43;;;2.80;;
55053;SDS011;40954;45.668;18.980;2023-04-25T00:47:14;2.85;;;2.65;;
55053;SDS011;40954;45.668;18.980;2023-04-25T00:49:40;4.25;;;3.10;;
55053;SDS011;40954;45.668;18.980;2023-04-25T00:52:06;3.03;;;2.80;;
55053;SDS011;40954;45.668;18.980;2023-04-25T00:54:33;3.35;;;2.63;;
55053;SDS011;40954;45.668;18.980;2023-04-25T00:56:59;4.75;;;3.20;;
55053;SDS011;40954;45.668;18.980;2023-04-25T00:59:26;4.20;;;3.80;;
55053;SDS011;40954;45.668;18.980;2023-04-25T01:01:54;3.50;;;3.20;;
55053;SDS011;40954;45.668;18.980;2023-04-25T01:04:20;3.63;;;2.47;;
55053;SDS011;40954;45.668;18.980;2023-04-25T01:06:47;3.08;;;2.60;;
55053;SDS011;40954;45.668;18.980;2023-04-25T01:09:13;2.95;;;2.10;;
55053;SDS011;40954;45.668;18.980;2023-04-25T01:11:40;2.58;;;2.33;;
55053;SDS011;40954;45.668;18.980;2023-04-25T01:14:06;3.10;;;2.80;;
55053;SDS011;40954;45.668;18.980;2023-04-25T01:16:32;2.10;;;1.98;;
55053;SDS011;40954;45.668;18.980;2023-04-25T01:18:58;3.92;;;2.10;;
55053;SDS011;40954;45.668;18.980;2023-04-25T01:21:25;7.70;;;5.20;;
55053;SDS011;40954;45.668;18.980;2023-04-25T01:23:53;4.00;;;2.30;;
55053;SDS011;40954;45.668;18.980;2023-04-25T01:26:19;3.08;;;2.22;;
55053;SDS011;40954;45.668;18.980;2023-04-25T01:28:47;2.70;;;1.55;;
55053;SDS011;40954;45.668;18.980;2023-04-25T01:31:14;1.92;;;1.70;;
55053;SDS011;40954;45.668;18.980;2023-04-25T01:33:40;2.35;;;1.90;;
55053;SDS011;40954;45.668;18.980;2023-04-25T01:36:06;7.60;;;1.70;;
55053;SDS011;40954;45.668;18.980;2023-04-25T01:38:32;1.90;;;1.65;;
55053;SDS011;40954;45.668;18.980;2023-04-25T01:40:59;1.63;;;1.50;;
55053;SDS011;40954;45.668;18.980;2023-04-25T01:43:25;4.30;;;2.28;;
55053;SDS011;40954;45.668;18.980;2023-04-25T01:45:51;2.13;;;1.98;;
55053;SDS011;40954;45.668;18.980;2023-04-25T01:48:17;3.75;;;2.00;;
55053;SDS011;40954;45.668;18.980;2023-04-25T01:50:44;4.95;;;2.30;;
55053;SDS011;40954;45.668;18.980;2023-04-25T01:53:10;4.63;;;2.25;;
55053;SDS011;40954;45.668;18.980;2023-04-25T01:55:37;2.80;;;1.85;;
55053;SDS011;40954;45.668;18.980;2023-04-25T01:58:03;1.80;;;1.70;;
55053;SDS011;40954;45.668;18.980;2023-04-25T02:00:34;2.38;;;2.17;;
55053;SDS011;40954;45.668;18.980;2023-04-25T02:03:03;2.67;;;2.10;;
55053;SDS011;40954;45.668;18.980;2023-04-25T02:05:33;2.85;;;1.95;;
55053;SDS011;40954;45.668;18.980;2023-04-25T02:07:59;2.58;;;1.98;;
55053;SDS011;40954;45.668;18.980;2023-04-25T02:10:25;3.50;;;2.53;;
55053;SDS011;40954;45.668;18.980;2023-04-25T02:12:51;3.65;;;2.28;;
55053;SDS011;40954;45.668;18.980;2023-04-25T02:15:17;4.57;;;2.10;;
55053;SDS011;40954;45.668;18.980;2023-04-25T02:17:43;8.38;;;2.63;;
55053;SDS011;40954;45.668;18.980;2023-04-25T02:20:10;3.35;;;2.33;;
55053;SDS011;40954;45.668;18.980;2023-04-25T02:22:36;3.28;;;2.40;;
55053;SDS011;40954;45.668;18.980;2023-04-25T02:25:02;2.95;;;2.65;;
55053;SDS011;40954;45.668;18.980;2023-04-25T02:27:29;2.75;;;2.50;;
55053;SDS011;40954;45.668;18.980;2023-04-25T02:29:56;3.25;;;3.05;;
55053;SDS011;40954;45.668;18.980;2023-04-25T02:32:22;3.35;;;3.05;;
55053;SDS011;40954;45.668;18.980;2023-04-25T02:34:48;2.70;;;2.50;;
55053;SDS011;40954;45.668;18.980;2023-04-25T02:37:14;2.90;;;2.60;;
55053;SDS011;40954;45.668;18.980;2023-04-25T02:39:40;2.63;;;2.30;;
55053;SDS011;40954;45.668;18.980;2023-04-25T02:42:06;2.50;;;2.30;;
55053;SDS011;40954;45.668;18.980;2023-04-25T02:44:32;3.05;;;2.75;;
55053;SDS011;40954;45.668;18.980;2023-04-25T02:46:58;3.47;;;3.17;;
55053;SDS011;40954;45.668;18.980;2023-04-25T02:49:24;2.80;;;2.50;;
55053;SDS011;40954;45.668;18.980;2023-04-25T02:51:50;5.30;;;2.80;;
55053;SDS011;40954;45.668;18.980;2023-04-25T02:54:16;3.80;;;2.88;;
55053;SDS011;40954;45.668;18.980;2023-04-25T02:56:42;3.20;;;2.92;;
55053;SDS011;40954;45.668;18.980;2023-04-25T02:59:08;2.80;;;2.60;;
55053;SDS011;40954;45.668;18.980;2023-04-25T03:01:34;3.28;;;2.90;;
55053;SDS011;40954;45.668;18.980;2023-04-25T03:04:00;3.72;;;3.03;;
55053;SDS011;40954;45.668;18.980;2023-04-25T03:06:26;4.95;;;3.17;;
55053;SDS011;40954;45.668;18.980;2023-04-25T03:08:52;3.05;;;2.80;;
55053;SDS011;40954;45.668;18.980;2023-04-25T03:11:18;3.05;;;2.75;;
55053;SDS011;40954;45.668;18.980;2023-04-25T03:13:45;2.83;;;2.63;;
55053;SDS011;40954;45.668;18.980;2023-04-25T03:16:11;3.40;;;3.10;;
55053;SDS011;40954;45.668;18.980;2023-04-25T03:18:37;5.32;;;2.92;;
55053;SDS011;40954;45.668;18.980;2023-04-25T03:21:03;6.00;;;2.90;;
55053;SDS011;40954;45.668;18.980;2023-04-25T03:23:29;2.92;;;2.58;;
55053;SDS011;40954;45.668;18.980;2023-04-25T03:25:56;3.22;;;2.92;;
55053;SDS011;40954;45.668;18.980;2023-04-25T03:28:22;3.03;;;2.83;;
55053;SDS011;40954;45.668;18.980;2023-04-25T03:30:48;4.00;;;2.80;;
55053;SDS011;40954;45.668;18.980;2023-04-25T03:33:14;3.28;;;3.00;;
55053;SDS011;40954;45.668;18.980;2023-04-25T03:35:40;4.70;;;2.80;;
55053;SDS011;40954;45.668;18.980;2023-04-25T03:38:07;3.20;;;2.90;;
55053;SDS011;40954;45.668;18.980;2023-04-25T03:40:33;3.97;;;2.80;;
55053;SDS011;40954;45.668;18.980;2023-04-25T03:42:59;3.28;;;2.97;;
55053;SDS011;40954;45.668;18.980;2023-04-25T03:45:25;4.68;;;3.05;;
55053;SDS011;40954;45.668;18.980;2023-04-25T03:47:51;3.72;;;2.95;;
55053;SDS011;40954;45.668;18.980;2023-04-25T03:50:17;4.32;;;2.97;;
55053;SDS011;40954;45.668;18.980;2023-04-25T03:52:43;3.60;;;3.15;;
55053;SDS011;40954;45.668;18.980;2023-04-25T03:55:09;6.20;;;2.90;;
55053;SDS011;40954;45.668;18.980;2023-04-25T03:57:36;3.30;;;3.00;;
55053;SDS011;40954;45.668;18.980;2023-04-25T04:00:02;3.47;;;3.17;;
55053;SDS011;40954;45.668;18.980;2023-04-25T04:02:29;2.97;;;2.78;;
55053;SDS011;40954;45.668;18.980;2023-04-25T04:04:55;3.92;;;3.20;;
55053;SDS011;40954;45.668;18.980;2023-04-25T04:07:21;3.53;;;3.17;;
55053;SDS011;40954;45.668;18.980;2023-04-25T04:09:47;3.25;;;2.95;;
55053;SDS011;40954;45.668;18.980;2023-04-25T04:12:13;4.88;;;2.97;;
55053;SDS011;40954;45.668;18.980;2023-04-25T04:14:39;3.13;;;2.70;;
55053;SDS011;40954;45.668;18.980;2023-04-25T04:17:06;3.90;;;2.55;;
55053;SDS011;40954;45.668;18.980;2023-04-25T04:19:32;3.00;;;2.70;;
55053;SDS011;40954;45.668;18.980;2023-04-25T04:21:58;4.25;;;2.67;;
55053;SDS011;40954;45.668;18.980;2023-04-25T04:24:24;3.28;;;2.90;;
55053;SDS011;40954;45.668;18.980;2023-04-25T04:26:50;2.55;;;2.35;;
55053;SDS011;40954;45.668;18.980;2023-04-25T04:29:17;3.13;;;2.72;;
55053;SDS011;40954;45.668;18.980;2023-04-25T04:31:49;5.57;;;4.05;;
55053;SDS011;40954;45.668;18.980;2023-04-25T04:34:15;7.05;;;3.92;;
55053;SDS011;40954;45.668;18.980;2023-04-25T04:36:43;3.55;;;3.22;;
55053;SDS011;40954;45.668;18.980;2023-04-25T04:39:11;3.05;;;2.85;;
55053;SDS011;40954;45.668;18.980;2023-04-25T04:41:37;4.57;;;3.22;;
55053;SDS011;40954;45.668;18.980;2023-04-25T04:44:03;5.25;;;3.90;;
55053;SDS011;40954;45.668;18.980;2023-04-25T04:46:29;5.60;;;3.85;;
55053;SDS011;40954;45.668;18.980;2023-04-25T04:48:56;4.32;;;3.92;;
55053;SDS011;40954;45.668;18.980;2023-04-25T04:51:23;4.13;;;3.70;;
55053;SDS011;40954;45.668;18.980;2023-04-25T04:53:49;4.15;;;3.75;;
55053;SDS011;40954;45.668;18.980;2023-04-25T04:56:15;4.68;;;3.45;;
55053;SDS011;40954;45.668;18.980;2023-04-25T04:58:41;3.88;;;3.40;;
55053;SDS011;40954;45.668;18.980;2023-04-25T05:01:09;5.30;;;3.58;;
55053;SDS011;40954;45.668;18.980;2023-04-25T05:03:35;4.28;;;3.88;;
55053;SDS011;40954;45.668;18.980;2023-04-25T05:06:01;4.00;;;3.70;;
55053;SDS011;40954;45.668;18.980;2023-04-25T05:08:27;3.85;;;3.53;;
55053;SDS011;40954;45.668;18.980;2023-04-25T05:10:53;4.20;;;3.50;;
55053;SDS011;40954;45.668;18.980;2023-04-25T05:13:19;3.72;;;3.28;;
55053;SDS011;40954;45.668;18.980;2023-04-25T05:15:45;3.40;;;3.13;;
55053;SDS011;40954;45.668;18.980;2023-04-25T05:18:11;3.42;;;3.13;;
55053;SDS011;40954;45.668;18.980;2023-04-25T05:20:37;3.97;;;3.67;;
55053;SDS011;40954;45.668;18.980;2023-04-25T05:23:03;5.20;;;3.63;;
55053;SDS011;40954;45.668;18.980;2023-04-25T05:25:29;4.03;;;3.22;;
55053;SDS011;40954;45.668;18.980;2023-04-25T05:27:56;3.22;;;3.00;;
55053;SDS011;40954;45.668;18.980;2023-04-25T05:30:23;3.63;;;3.33;;
55053;SDS011;40954;45.668;18.980;2023-04-25T05:32:49;4.15;;;3.10;;
55053;SDS011;40954;45.668;18.980;2023-04-25T05:35:15;4.03;;;3.65;;
55053;SDS011;40954;45.668;18.980;2023-04-25T05:37:41;4.95;;;3.72;;
55053;SDS011;40954;45.668;18.980;2023-04-25T05:40:08;3.70;;;3.40;;
55053;SDS011;40954;45.668;18.980;2023-04-25T05:42:34;4.68;;;3.53;;
55053;SDS011;40954;45.668;18.980;2023-04-25T05:45:00;9.10;;;4.30;;
55053;SDS011;40954;45.668;18.980;2023-04-25T05:47:27;4.03;;;3.38;;
55053;SDS011;40954;45.668;18.980;2023-04-25T05:49:53;3.85;;;3.55;;
55053;SDS011;40954;45.668;18.980;2023-04-25T05:52:19;4.97;;;3.22;;
55053;SDS011;40954;45.668;18.980;2023-04-25T05:54:45;5.40;;;3.05;;
55053;SDS011;40954;45.668;18.980;2023-04-25T05:57:23;4.38;;;3.70;;
55053;SDS011;40954;45.668;18.980;2023-04-25T05:59:50;4.35;;;3.97;;
55053;SDS011;40954;45.668;18.980;2023-04-25T06:02:16;3.97;;;3.30;;
55053;SDS011;40954;45.668;18.980;2023-04-25T06:04:42;4.28;;;3.88;;
55053;SDS011;40954;45.668;18.980;2023-04-25T06:07:08;3.90;;;3.50;;
55053;SDS011;40954;45.668;18.980;2023-04-25T06:09:34;3.00;;;2.80;;
55053;SDS011;40954;45.668;18.980;2023-04-25T06:12:00;3.78;;;3.35;;
55053;SDS011;40954;45.668;18.980;2023-04-25T06:14:26;3.92;;;3.55;;
55053;SDS011;40954;45.668;18.980;2023-04-25T06:16:53;4.78;;;3.03;;
55053;SDS011;40954;45.668;18.980;2023-04-25T06:19:19;4.72;;;2.92;;
55053;SDS011;40954;45.668;18.980;2023-04-25T06:21:45;4.43;;;3.25;;
55053;SDS011;40954;45.668;18.980;2023-04-25T06:24:11;3.13;;;2.92;;
55053;SDS011;40954;45.668;18.980;2023-04-25T06:26:37;3.42;;;3.13;;
55053;SDS011;40954;45.668;18.980;2023-04-25T06:29:03;3.17;;;2.85;;
55053;SDS011;40954;45.668;18.980;2023-04-25T06:31:29;3.10;;;2.80;;
55053;SDS011;40954;45.668;18.980;2023-04-25T06:33:57;2.92;;;2.72;;
55053;SDS011;40954;45.668;18.980;2023-04-25T06:36:23;3.15;;;2.85;;
55053;SDS011;40954;45.668;18.980;2023-04-25T06:38:52;3.28;;;2.97;;
55053;SDS011;40954;45.668;18.980;2023-04-25T06:41:19;3.08;;;2.83;;
55053;SDS011;40954;45.668;18.980;2023-04-25T06:43:45;4.72;;;2.90;;
55053;SDS011;40954;45.668;18.980;2023-04-25T06:46:11;3.30;;;2.65;;
55053;SDS011;40954;45.668;18.980;2023-04-25T06:48:37;3.50;;;2.90;;
55053;SDS011;40954;45.668;18.980;2023-04-25T06:51:03;4.88;;;3.22;;
55053;SDS011;40954;45.668;18.980;2023-04-25T06:53:30;2.45;;;2.25;;
55053;SDS011;40954;45.668;18.980;2023-04-25T06:55:56;5.95;;;3.17;;
55053;SDS011;40954;45.668;18.980;2023-04-25T06:58:22;3.22;;;2.88;;
55053;SDS011;40954;45.668;18.980;2023-04-25T07:00:48;4.43;;;2.95;;
55053;SDS011;40954;45.668;18.980;2023-04-25T07:03:14;2.88;;;2.58;;
55053;SDS011;40954;45.668;18.980;2023-04-25T07:05:40;3.20;;;3.00;;
55053;SDS011;40954;45.668;18.980;2023-04-25T07:08:06;3.45;;;2.80;;
55053;SDS011;40954;45.668;18.980;2023-04-25T07:10:32;3.47;;;2.50;;
55053;SDS011;40954;45.668;18.980;2023-04-25T07:12:58;2.60;;;2.40;;
55053;SDS011;40954;45.668;18.980;2023-04-25T07:15:25;3.17;;;2.75;;
55053;SDS011;40954;45.668;18.980;2023-04-25T07:17:51;4.57;;;3.13;;
55053;SDS011;40954;45.668;18.980;2023-04-25T07:20:17;5.13;;;2.63;;
55053;SDS011;40954;45.668;18.980;2023-04-25T07:22:43;5.25;;;2.63;;
55053;SDS011;40954;45.668;18.980;2023-04-25T07:25:09;4.00;;;2.53;;
55053;SDS011;40954;45.668;18.980;2023-04-25T07:27:35;3.65;;;2.50;;
55053;SDS011;40954;45.668;18.980;2023-04-25T07:30:01;3.28;;;2.55;;
55053;SDS011;40954;45.668;18.980;2023-04-25T07:32:28;5.30;;;2.83;;
55053;SDS011;40954;45.668;18.980;2023-04-25T07:34:54;4.18;;;2.60;;
55053;SDS011;40954;45.668;18.980;2023-04-25T07:37:20;3.90;;;2.28;;
55053;SDS011;40954;45.668;18.980;2023-04-25T07:39:47;2.55;;;2.35;;
55053;SDS011;40954;45.668;18.980;2023-04-25T07:42:13;3.38;;;2.05;;
55053;SDS011;40954;45.668;18.980;2023-04-25T07:44:39;3.05;;;2.72;;
55053;SDS011;40954;45.668;18.980;2023-04-25T07:47:07;2.30;;;2.20;;
55053;SDS011;40954;45.668;18.980;2023-04-25T07:49:34;2.35;;;2.22;;
55053;SDS011;40954;45.668;18.980;2023-04-25T07:52:02;3.35;;;2.30;;
55053;SDS011;40954;45.668;18.980;2023-04-25T07:54:28;3.83;;;2.58;;
55053;SDS011;40954;45.668;18.980;2023-04-25T07:56:54;3.30;;;3.00;;
55053;SDS011;40954;45.668;18.980;2023-04-25T07:59:21;3.40;;;2.60;;
55053;SDS011;40954;45.668;18.980;2023-04-25T08:01:47;2.75;;;2.55;;
55053;SDS011;40954;45.668;18.980;2023-04-25T08:04:13;4.03;;;2.50;;
55053;SDS011;40954;45.668;18.980;2023-04-25T08:06:39;3.00;;;2.13;;
55053;SDS011;40954;45.668;18.980;2023-04-25T08:09:06;4.35;;;2.30;;
55053;SDS011;40954;45.668;18.980;2023-04-25T08:11:34;6.40;;;2.50;;
55053;SDS011;40954;45.668;18.980;2023-04-25T08:14:00;3.95;;;3.10;;
55053;SDS011;40954;45.668;18.980;2023-04-25T08:16:26;4.20;;;2.67;;
55053;SDS011;40954;45.668;18.980;2023-04-25T08:18:52;2.80;;;2.33;;
55053;SDS011;40954;45.668;18.980;2023-04-25T08:21:18;2.35;;;2.15;;
55053;SDS011;40954;45.668;18.980;2023-04-25T08:23:45;2.90;;;2.30;;
55053;SDS011;40954;45.668;18.980;2023-04-25T08:26:11;2.45;;;2.28;;
55053;SDS011;40954;45.668;18.980;2023-04-25T08:28:37;2.58;;;2.38;;
55053;SDS011;40954;45.668;18.980;2023-04-25T08:31:03;2.72;;;2.53;;
55053;SDS011;40954;45.668;18.980;2023-04-25T08:33:29;5.38;;;2.15;;
55053;SDS011;40954;45.668;18.980;2023-04-25T08:35:57;2.70;;;2.50;;
55053;SDS011;40954;45.668;18.980;2023-04-25T08:38:23;3.80;;;2.22;;
55053;SDS011;40954;45.668;18.980;2023-04-25T08:40:49;2.10;;;1.95;;
55053;SDS011;40954;45.668;18.980;2023-04-25T08:43:17;3.00;;;2.80;;
55053;SDS011;40954;45.668;18.980;2023-04-25T08:45:44;3.10;;;2.63;;
55053;SDS011;40954;45.668;18.980;2023-04-25T08:48:15;2.28;;;1.90;;
55053;SDS011;40954;45.668;18.980;2023-04-25T08:50:51;2.83;;;1.92;;
55053;SDS011;40954;45.668;18.980;2023-04-25T08:53:21;3.38;;;2.10;;
55053;SDS011;40954;45.668;18.980;2023-04-25T08:55:47;3.20;;;2.00;;
55053;SDS011;40954;45.668;18.980;2023-04-25T08:58:17;2.20;;;2.00;;
55053;SDS011;40954;45.668;18.980;2023-04-25T09:00:45;4.22;;;2.15;;
55053;SDS011;40954;45.668;18.980;2023-04-25T09:03:11;2.40;;;2.20;;
55053;SDS011;40954;45.668;18.980;2023-04-25T09:05:39;2.85;;;2.22;;
55053;SDS011;40954;45.668;18.980;2023-04-25T09:08:05;2.50;;;2.30;;
55053;SDS011;40954;45.668;18.980;2023-04-25T09:10:32;3.53;;;2.40;;
55053;SDS011;40954;45.668;18.980;2023-04-25T09:13:02;3.47;;;2.08;;
55053;SDS011;40954;45.668;18.980;2023-04-25T09:15:29;5.32;;;2.55;;
55053;SDS011;40954;45.668;18.980;2023-04-25T09:17:58;2.95;;;2.60;;
55053;SDS011;40954;45.668;18.980;2023-04-25T09:20:24;4.25;;;2.40;;
55053;SDS011;40954;45.668;18.980;2023-04-25T09:23:03;5.53;;;2.20;;
55053;SDS011;40954;45.668;18.980;2023-04-25T09:25:36;6.95;;;2.70;;
55053;SDS011;40954;45.668;18.980;2023-04-25T09:28:05;2.72;;;2.05;;
55053;SDS011;40954;45.668;18.980;2023-04-25T09:30:33;3.38;;;1.80;;
55053;SDS011;40954;45.668;18.980;2023-04-25T09:33:10;3.30;;;2.58;;
55053;SDS011;40954;45.668;18.980;2023-04-25T09:35:36;2.40;;;1.98;;
55053;SDS011;40954;45.668;18.980;2023-04-25T09:40:38;3.22;;;1.90;;
55053;SDS011;40954;45.668;18.980;2023-04-25T09:43:08;3.30;;;2.22;;
55053;SDS011;40954;45.668;18.980;2023-04-25T09:45:40;2.47;;;1.90;;
55053;SDS011;40954;45.668;18.980;2023-04-25T09:48:10;2.30;;;2.05;;
55053;SDS011;40954;45.668;18.980;2023-04-25T09:50:36;4.22;;;2.40;;
55053;SDS011;40954;45.668;18.980;2023-04-25T09:53:05;2.85;;;2.13;;
55053;SDS011;40954;45.668;18.980;2023-04-25T09:55:32;2.30;;;1.63;;
55053;SDS011;40954;45.668;18.980;2023-04-25T09:58:01;6.55;;;2.22;;
55053;SDS011;40954;45.668;18.980;2023-04-25T10:00:30;3.20;;;1.70;;
55053;SDS011;40954;45.668;18.980;2023-04-25T10:02:57;1.70;;;1.60;;
55053;SDS011;40954;45.668;18.980;2023-04-25T10:05:23;2.28;;;1.70;;
55053;SDS011;40954;45.668;18.980;2023-04-25T10:07:49;2.45;;;1.80;;
55053;SDS011;40954;45.668;18.980;2023-04-25T10:10:16;5.18;;;2.45;;
55053;SDS011;40954;45.668;18.980;2023-04-25T10:12:43;2.95;;;2.13;;
55053;SDS011;40954;45.668;18.980;2023-04-25T10:15:10;2.97;;;2.40;;
55053;SDS011;40954;45.668;18.980;2023-04-25T10:17:36;2.22;;;2.03;;
55053;SDS011;40954;45.668;18.980;2023-04-25T10:20:02;2.22;;;2.00;;
55053;SDS011;40954;45.668;18.980;2023-04-25T10:22:34;3.63;;;1.98;;
55053;SDS011;40954;45.668;18.980;2023-04-25T10:25:01;3.90;;;2.22;;
55053;SDS011;40954;45.668;18.980;2023-04-25T10:27:29;3.72;;;2.60;;
55053;SDS011;40954;45.668;18.980;2023-04-25T10:30:03;2.55;;;1.98;;
55053;SDS011;40954;45.668;18.980;2023-04-25T10:32:32;3.03;;;1.85;;
55053;SDS011;40954;45.668;18.980;2023-04-25T10:35:09;2.28;;;1.85;;
55053;SDS011;40954;45.668;18.980;2023-04-25T10:37:36;3.65;;;2.20;;
55053;SDS011;40954;45.668;18.980;2023-04-25T10:40:09;5.07;;;1.35;;
55053;SDS011;40954;45.668;18.980;2023-04-25T10:42:35;3.97;;;1.55;;
55053;SDS011;40954;45.668;18.980;2023-04-25T10:45:02;4.00;;;1.70;;
55053;SDS011;40954;45.668;18.980;2023-04-25T10:47:36;2.72;;;1.48;;
55053;SDS011;40954;45.668;18.980;2023-04-25T10:50:05;1.30;;;1.20;;
55053;SDS011;40954;45.668;18.980;2023-04-25T10:52:32;1.30;;;1.20;;
55053;SDS011;40954;45.668;18.980;2023-04-25T10:54:58;2.10;;;1.65;;
55053;SDS011;40954;45.668;18.980;2023-04-25T11:00:16;3.88;;;1.60;;
55053;SDS011;40954;45.668;18.980;2023-04-25T11:02:42;2.17;;;2.00;;
55053;SDS011;40954;45.668;18.980;2023-04-25T11:05:10;1.50;;;1.40;;
55053;SDS011;40954;45.668;18.980;2023-04-25T11:07:54;2.83;;;1.65;;
55053;SDS011;40954;45.668;18.980;2023-04-25T11:10:27;8.48;;;1.45;;
55053;SDS011;40954;45.668;18.980;2023-04-25T11:12:54;1.63;;;1.48;;
55053;SDS011;40954;45.668;18.980;2023-04-25T11:15:20;1.50;;;1.35;;
55053;SDS011;40954;45.668;18.980;2023-04-25T11:17:46;1.77;;;1.42;;
55053;SDS011;40954;45.668;18.980;2023-04-25T11:20:12;4.13;;;1.63;;
55053;SDS011;40954;45.668;18.980;2023-04-25T11:22:40;5.63;;;1.50;;
55053;SDS011;40954;45.668;18.980;2023-04-25T11:25:07;1.70;;;1.17;;
55053;SDS011;40954;45.668;18.980;2023-04-25T11:27:33;1.35;;;1.23;;
55053;SDS011;40954;45.668;18.980;2023-04-25T11:30:09;3.63;;;1.15;;
55053;SDS011;40954;45.668;18.980;2023-04-25T11:32:35;1.40;;;1.20;;
55053;SDS011;40954;45.668;18.980;2023-04-25T11:35:01;2.13;;;1.27;;
55053;SDS011;40954;45.668;18.980;2023-04-25T11:37:28;3.63;;;1.58;;
55053;SDS011;40954;45.668;18.980;2023-04-25T11:39:54;1.60;;;1.50;;
55053;SDS011;40954;45.668;18.980;2023-04-25T11:42:20;3.25;;;1.80;;
55053;SDS011;40954;45.668;18.980;2023-04-25T11:44:46;3.38;;;1.50;;
55053;SDS011;40954;45.668;18.980;2023-04-25T11:47:12;1.73;;;1.40;;
55053;SDS011;40954;45.668;18.980;2023-04-25T11:49:38;3.08;;;1.42;;
55053;SDS011;40954;45.668;18.980;2023-04-25T11:52:06;2.40;;;1.20;;
55053;SDS011;40954;45.668;18.980;2023-04-25T11:54:34;2.08;;;1.40;;
55053;SDS011;40954;45.668;18.980;2023-04-25T11:57:01;1.73;;;1.17;;
55053;SDS011;40954;45.668;18.980;2023-04-25T11:59:27;3.78;;;1.38;;
55053;SDS011;40954;45.668;18.980;2023-04-25T12:01:53;5.20;;;1.85;;
55053;SDS011;40954;45.668;18.980;2023-04-25T12:04:22;1.48;;;1.23;;
55053;SDS011;40954;45.668;18.980;2023-04-25T12:06:50;0.90;;;0.90;;
55053;SDS011;40954;45.668;18.980;2023-04-25T12:09:17;1.70;;;1.60;;
55053;SDS011;40954;45.668;18.980;2023-04-25T12:11:53;2.42;;;1.30;;
55053;SDS011;40954;45.668;18.980;2023-04-25T12:14:27;3.05;;;1.40;;
55053;SDS011;40954;45.668;18.980;2023-04-25T12:16:55;1.33;;;1.23;;
55053;SDS011;40954;45.668;18.980;2023-04-25T12:19:22;4.10;;;1.63;;
55053;SDS011;40954;45.668;18.980;2023-04-25T12:21:48;3.88;;;1.80;;
55053;SDS011;40954;45.668;18.980;2023-04-25T12:26:46;3.13;;;1.42;;
55053;SDS011;40954;45.668;18.980;2023-04-25T12:29:16;2.70;;;1.58;;
55053;SDS011;40954;45.668;18.980;2023-04-25T12:31:42;1.25;;;1.17;;
55053;SDS011;40954;45.668;18.980;2023-04-25T12:34:08;2.40;;;2.08;;
55053;SDS011;40954;45.668;18.980;2023-04-25T12:36:34;3.83;;;1.90;;
55053;SDS011;40954;45.668;18.980;2023-04-25T12:39:01;3.40;;;2.83;;
55053;SDS011;40954;45.668;18.980;2023-04-25T12:41:29;6.45;;;2.47;;
55053;SDS011;40954;45.668;18.980;2023-04-25T12:43:55;3.95;;;2.92;;
55053;SDS011;40954;45.668;18.980;2023-04-25T12:46:21;4.80;;;2.05;;
55053;SDS011;40954;45.668;18.980;2023-04-25T12:48:50;3.30;;;1.92;;
55053;SDS011;40954;45.668;18.980;2023-04-25T12:51:16;4.78;;;1.80;;
55053;SDS011;40954;45.668;18.980;2023-04-25T12:53:43;2.42;;;1.25;;
55053;SDS011;40954;45.668;18.980;2023-04-25T12:56:09;2.00;;;1.80;;
55053;SDS011;40954;45.668;18.980;2023-04-25T12:58:36;2.30;;;1.45;;
55053;SDS011;40954;45.668;18.980;2023-04-25T13:01:02;1.83;;;1.30;;
55053;SDS011;40954;45.668;18.980;2023-04-25T13:03:28;4.15;;;1.42;;
55053;SDS011;40954;45.668;18.980;2023-04-25T13:05:55;1.80;;;1.20;;
55053;SDS011;40954;45.668;18.980;2023-04-25T13:08:21;2.58;;;1.20;;
55053;SDS011;40954;45.668;18.980;2023-04-25T13:10:47;1.48;;;1.38;;
55053;SDS011;40954;45.668;18.980;2023-04-25T13:13:13;2.58;;;1.30;;
55053;SDS011;40954;45.668;18.980;2023-04-25T13:15:39;1.23;;;1.10;;
55053;SDS011;40954;45.668;18.980;2023-04-25T13:18:05;1.60;;;1.15;;
55053;SDS011;40954;45.668;18.980;2023-04-25T13:20:31;1.98;;;1.45;;
55053;SDS011;40954;45.668;18.980;2023-04-25T13:22:58;1.67;;;1.30;;
55053;SDS011;40954;45.668;18.980;2023-04-25T13:25:24;1.45;;;1.00;;
55053;SDS011;40954;45.668;18.980;2023-04-25T13:27:50;1.48;;;1.33;;
55053;SDS011;40954;45.668;18.980;2023-04-25T13:30:16;1.85;;;0.93;;
55053;SDS011;40954;45.668;18.980;2023-04-25T13:32:43;2.42;;;1.98;;
55053;SDS011;40954;45.668;18.980;2023-04-25T13:35:10;1.38;;;1.27;;
55053;SDS011;40954;45.668;18.980;2023-04-25T13:37:37;2.03;;;1.20;;
55053;SDS011;40954;45.668;18.980;2023-04-25T13:40:03;4.28;;;1.55;;
55053;SDS011;40954;45.668;18.980;2023-04-25T13:42:33;2.20;;;1.13;;
55053;SDS011;40954;45.668;18.980;2023-04-25T13:44:59;1.27;;;1.17;;
55053;SDS011;40954;45.668;18.980;2023-04-25T13:47:25;5.13;;;1.25;;
55053;SDS011;40954;45.668;18.980;2023-04-25T13:49:51;2.47;;;1.55;;
55053;SDS011;40954;45.668;18.980;2023-04-25T13:52:17;1.33;;;1.23;;
55053;SDS011;40954;45.668;18.980;2023-04-25T13:54:43;1.00;;;1.00;;
55053;SDS011;40954;45.668;18.980;2023-04-25T13:57:10;1.92;;;1.17;;
55053;SDS011;40954;45.668;18.980;2023-04-25T13:59:36;1.73;;;1.25;;
55053;SDS011;40954;45.668;18.980;2023-04-25T14:02:02;1.55;;;0.95;;
55053;SDS011;40954;45.668;18.980;2023-04-25T14:04:29;1.38;;;1.17;;
55053;SDS011;40954;45.668;18.980;2023-04-25T14:06:55;3.05;;;1.00;;
55053;SDS011;40954;45.668;18.980;2023-04-25T14:09:21;2.08;;;1.75;;
55053;SDS011;40954;45.668;18.980;2023-04-25T14:11:51;3.03;;;1.48;;
55053;SDS011;40954;45.668;18.980;2023-04-25T14:14:20;1.27;;;1.17;;
55053;SDS011;40954;45.668;18.980;2023-04-25T14:16:47;2.03;;;1.45;;
55053;SDS011;40954;45.668;18.980;2023-04-25T14:19:13;1.95;;;1.20;;
55053;SDS011;40954;45.668;18.980;2023-04-25T14:21:40;1.30;;;1.20;;
55053;SDS011;40954;45.668;18.980;2023-04-25T14:24:06;4.70;;;2.10;;
55053;SDS011;40954;45.668;18.980;2023-04-25T14:26:35;3.10;;;1.40;;
55053;SDS011;40954;45.668;18.980;2023-04-25T14:29:01;3.90;;;1.55;;
55053;SDS011;40954;45.668;18.980;2023-04-25T14:31:27;1.73;;;1.25;;
55053;SDS011;40954;45.668;18.980;2023-04-25T14:33:53;3.85;;;1.52;;
55053;SDS011;40954;45.668;18.980;2023-04-25T14:36:20;1.13;;;1.13;;
55053;SDS011;40954;45.668;18.980;2023-04-25T14:38:46;1.35;;;1.20;;